Time;durP1;ratioP1;P1;durP2;ratioP2;P2;SDS_P1;SDS_P2;PMS_P1;PMS_P2;Temp;Humidity;BMP_temperature;BMP_pressure;BME280_temperature;BME280_humidity;BME280_pressure;Samples;Min_cycle;Max_cycle;Signal;HPM_P1;HPM_P2
2022/05/04 00:00:25;;;;;;;849.57;790.97;;;7.60;99.90;;;;;;4957235;29;20488;-82
2022/05/04 00:02:51;;;;;;;851.67;789.47;;;7.50;99.90;;;;;;4945048;29;20461;-82
2022/05/04 00:05:18;;;;;;;850.00;788.90;;;7.50;99.90;;;;;;4939373;29;20456;-82
2022/05/04 00:07:45;;;;;;;840.77;782.87;;;7.60;99.90;;;;;;4950709;29;20459;-82
2022/05/04 00:10:14;;;;;;;846.87;788.00;;;7.60;99.90;;;;;;4957922;29;20488;-82
2022/05/04 00:12:41;;;;;;;856.23;795.83;;;7.60;99.90;;;;;;4942197;29;20461;-83
2022/05/04 00:15:09;;;;;;;866.80;806.40;;;7.50;99.90;;;;;;4952716;29;20451;-83
2022/05/04 00:17:36;;;;;;;842.67;783.07;;;7.40;99.90;;;;;;4968110;29;20563;-83
2022/05/04 00:20:02;;;;;;;853.00;791.20;;;7.40;99.90;;;;;;4970399;28;20480;-84
2022/05/04 00:22:29;;;;;;;862.67;799.53;;;7.40;99.90;;;;;;4954417;29;20453;-82
2022/05/04 00:24:56;;;;;;;855.83;795.90;;;7.40;99.90;;;;;;4952138;29;20461;-83
2022/05/04 00:27:24;;;;;;;857.50;794.27;;;7.40;99.90;;;;;;4966087;29;20452;-83
2022/05/04 00:29:51;;;;;;;853.13;791.77;;;7.40;99.90;;;;;;4969841;28;20507;-83
2022/05/04 00:32:18;;;;;;;852.20;790.13;;;7.40;99.90;;;;;;4960736;29;20778;-83
2022/05/04 00:34:45;;;;;;;865.77;802.03;;;7.40;99.90;;;;;;4951750;29;20453;-84
2022/05/04 00:37:12;;;;;;;861.47;797.70;;;7.40;99.90;;;;;;4951785;29;20459;-83
2022/05/04 00:39:39;;;;;;;854.07;790.40;;;7.30;99.90;;;;;;4950282;29;20468;-84
2022/05/04 00:42:08;;;;;;;863.20;799.60;;;7.30;99.90;;;;;;4952060;29;20828;-83
2022/05/04 00:44:37;;;;;;;861.50;799.70;;;7.40;99.90;;;;;;4951679;29;20819;-84
2022/05/04 00:47:04;;;;;;;843.87;785.57;;;7.30;99.90;;;;;;4967455;29;20454;-84
2022/05/04 00:49:31;;;;;;;854.37;792.87;;;7.20;99.90;;;;;;4969806;29;20474;-84
2022/05/04 00:51:58;;;;;;;829.20;771.43;;;7.20;99.90;;;;;;4954773;29;20529;-83
2022/05/04 00:54:25;;;;;;;842.83;783.30;;;7.20;99.90;;;;;;4950700;29;20455;-84
2022/05/04 00:56:53;;;;;;;818.63;762.47;;;7.20;99.90;;;;;;4965440;29;20459;-84
2022/05/04 00:59:21;;;;;;;798.37;746.70;;;7.20;99.90;;;;;;4969061;29;20493;-83
2022/05/04 01:01:49;;;;;;;832.07;775.53;;;7.20;99.90;;;;;;4956628;29;20504;-84
2022/05/04 01:04:18;;;;;;;810.40;758.90;;;7.20;99.90;;;;;;4950905;29;20471;-84
2022/05/04 01:06:45;;;;;;;805.47;753.47;;;7.10;99.90;;;;;;4963619;29;20456;-83
2022/05/04 01:09:12;;;;;;;809.27;756.70;;;7.20;99.90;;;;;;4970531;29;20456;-82
2022/05/04 01:11:39;;;;;;;801.17;750.60;;;7.10;99.90;;;;;;4949766;29;20456;-83
2022/05/04 01:14:08;;;;;;;821.07;766.40;;;7.20;99.90;;;;;;4950886;29;20457;-83
2022/05/04 01:16:37;;;;;;;826.60;767.53;;;7.20;99.90;;;;;;4968642;29;20459;-83
2022/05/04 01:19:06;;;;;;;828.77;770.50;;;7.10;99.90;;;;;;4969302;29;20494;-83
2022/05/04 01:21:33;;;;;;;824.63;769.93;;;7.10;99.90;;;;;;4968222;29;20448;-83
2022/05/04 01:24:02;;;;;;;843.33;784.87;;;7.00;99.90;;;;;;4970722;29;20458;-83
2022/05/04 01:26:28;;;;;;;849.57;789.27;;;6.90;99.90;;;;;;4968134;29;20451;-83
2022/05/04 01:28:55;;;;;;;860.77;795.10;;;6.90;99.90;;;;;;4969683;29;20458;-83
2022/05/04 01:31:23;;;;;;;837.37;777.37;;;7.00;99.90;;;;;;4955578;28;20497;-83
2022/05/04 01:33:49;;;;;;;858.63;796.53;;;6.90;99.90;;;;;;4950665;29;20457;-84
2022/05/04 01:36:16;;;;;;;854.27;790.37;;;6.90;99.90;;;;;;4963877;29;20451;-84
2022/05/04 01:38:43;;;;;;;846.13;783.53;;;6.80;99.90;;;;;;4967488;29;20479;-83
2022/05/04 01:43:52;;;;;;;843.33;784.77;;;6.70;99.90;;;;;;4958728;29;20465;-83
2022/05/04 01:46:19;;;;;;;848.20;787.17;;;6.60;99.90;;;;;;4950892;29;20946;-82
2022/05/04 01:48:46;;;;;;;849.27;785.67;;;6.50;99.90;;;;;;4959375;29;20452;-83
2022/05/04 01:51:12;;;;;;;840.80;779.30;;;6.50;99.90;;;;;;4969407;29;20491;-83
2022/05/04 01:53:39;;;;;;;858.80;795.37;;;6.50;99.90;;;;;;4961680;29;20457;-84
2022/05/04 01:56:08;;;;;;;853.77;789.30;;;6.50;99.90;;;;;;4957800;29;20471;-84
2022/05/04 01:58:36;;;;;;;857.50;790.23;;;6.50;99.90;;;;;;4966652;28;20933;-83
2022/05/04 02:01:02;;;;;;;863.33;796.40;;;6.40;99.90;;;;;;4968983;29;20882;-83
2022/05/04 02:03:29;;;;;;;855.53;789.80;;;6.40;99.90;;;;;;4963344;29;20460;-83
2022/05/04 02:05:56;;;;;;;854.60;789.60;;;6.50;99.90;;;;;;4951989;29;20521;-82
2022/05/04 02:08:24;;;;;;;847.73;785.40;;;6.40;99.90;;;;;;4955444;29;20448;-83
2022/05/04 02:10:51;;;;;;;846.07;782.80;;;6.40;99.90;;;;;;4970986;29;20535;-83
2022/05/04 02:13:17;;;;;;;853.73;790.27;;;6.40;99.90;;;;;;4960817;29;20457;-82
2022/05/04 02:15:46;;;;;;;861.37;798.67;;;6.30;99.90;;;;;;4952896;29;20453;-84
2022/05/04 02:18:12;;;;;;;850.27;783.67;;;6.30;99.90;;;;;;4959578;29;20487;-82
2022/05/04 02:20:39;;;;;;;847.23;781.73;;;6.30;99.90;;;;;;4972123;29;20486;-84
2022/05/04 02:23:06;;;;;;;874.13;807.80;;;6.20;99.90;;;;;;4953211;29;20467;-82
2022/05/04 02:25:33;;;;;;;852.93;788.67;;;6.20;99.90;;;;;;4953652;29;20453;-83
2022/05/04 02:27:59;;;;;;;858.90;792.00;;;6.20;99.90;;;;;;4971491;29;20460;-83
2022/05/04 02:30:26;;;;;;;865.47;796.90;;;6.10;99.90;;;;;;4958137;29;20480;-83
2022/05/04 02:32:54;;;;;;;860.07;793.00;;;6.20;99.90;;;;;;4952262;29;20463;-83
2022/05/04 02:38:06;;;;;;;860.93;793.83;;;6.00;99.90;;;;;;4972464;29;20508;-83
2022/05/04 02:40:33;;;;;;;874.47;804.83;;;6.10;99.90;;;;;;4958684;28;20487;-83
2022/05/04 02:43:01;;;;;;;868.43;801.60;;;6.00;99.90;;;;;;4953420;29;20461;-83
2022/05/04 02:45:28;;;;;;;875.83;808.00;;;6.00;99.90;;;;;;4965017;29;20452;-84
2022/05/04 02:47:56;;;;;;;857.90;792.93;;;5.90;99.90;;;;;;4973683;29;20462;-83
2022/05/04 02:50:22;;;;;;;860.73;796.37;;;5.90;99.90;;;;;;4961021;29;20469;-83
2022/05/04 02:52:49;;;;;;;857.50;791.00;;;5.80;99.90;;;;;;4953449;29;20456;-82
2022/05/04 02:55:16;;;;;;;858.77;791.43;;;5.90;99.90;;;;;;4964690;29;20460;-83
2022/05/04 02:57:43;;;;;;;868.73;799.67;;;5.80;99.90;;;;;;4977700;28;20452;-83
2022/05/04 03:00:11;;;;;;;865.83;796.67;;;5.80;99.90;;;;;;4961168;29;20481;-83
2022/05/04 03:02:38;;;;;;;843.40;778.20;;;5.80;99.90;;;;;;4957750;29;20453;-83
2022/05/04 03:05:08;;;;;;;860.50;792.40;;;5.80;99.90;;;;;;4956037;29;20463;-82
2022/05/04 03:07:35;;;;;;;859.53;792.90;;;5.80;99.90;;;;;;4952912;29;20441;-83
2022/05/04 03:10:02;;;;;;;850.93;785.03;;;5.80;99.90;;;;;;4951205;29;20472;-83
2022/05/04 03:12:28;;;;;;;854.57;788.07;;;5.70;99.90;;;;;;4951359;29;20459;-84
2022/05/04 03:14:55;;;;;;;878.97;809.37;;;5.60;99.90;;;;;;4963921;29;20491;-83
2022/05/04 03:17:22;;;;;;;870.17;801.50;;;5.60;99.90;;;;;;4970594;28;20456;-83
2022/05/04 03:19:49;;;;;;;881.00;810.30;;;5.60;99.90;;;;;;4958907;29;20493;-84
2022/05/04 03:22:17;;;;;;;896.57;826.60;;;5.60;99.90;;;;;;4956637;29;20523;-84
2022/05/04 03:24:44;;;;;;;886.53;815.73;;;5.50;99.90;;;;;;4968979;28;20452;-84
2022/05/04 03:27:11;;;;;;;882.40;810.97;;;5.40;99.90;;;;;;4967057;29;20452;-83
2022/05/04 03:29:38;;;;;;;870.50;801.30;;;5.50;99.90;;;;;;4951724;29;20536;-84
2022/05/04 03:32:06;;;;;;;862.60;791.67;;;5.60;99.90;;;;;;4953636;29;20456;-83
2022/05/04 03:34:33;;;;;;;874.57;802.17;;;5.60;99.90;;;;;;4970536;29;20524;-84
2022/05/04 03:36:59;;;;;;;865.10;791.73;;;5.70;99.90;;;;;;4969106;29;20435;-83
2022/05/04 03:39:28;;;;;;;862.67;787.90;;;5.70;99.90;;;;;;4950899;29;20544;-84
2022/05/04 03:41:55;;;;;;;887.23;813.53;;;5.70;99.90;;;;;;4959553;29;20524;-83
2022/05/04 03:44:22;;;;;;;870.83;795.97;;;5.80;99.90;;;;;;4970932;28;20455;-83
2022/05/04 03:46:50;;;;;;;874.47;800.93;;;5.80;99.90;;;;;;4964182;29;20460;-83
2022/05/04 03:49:18;;;;;;;865.83;793.43;;;6.00;99.90;;;;;;4950470;29;20475;-83
2022/05/04 03:51:45;;;;;;;874.50;801.87;;;6.00;99.90;;;;;;4956927;29;20452;-83
2022/05/04 03:54:12;;;;;;;878.00;804.93;;;6.10;99.90;;;;;;4970547;29;20837;-82
2022/05/04 03:56:41;;;;;;;874.17;800.70;;;6.10;99.90;;;;;;4969441;29;20457;-84
2022/05/04 03:59:09;;;;;;;864.50;793.20;;;6.20;99.90;;;;;;4956536;28;20476;-83
2022/05/04 04:01:36;;;;;;;866.10;797.33;;;6.20;99.90;;;;;;4952924;29;20460;-85
2022/05/04 04:04:03;;;;;;;876.13;805.83;;;6.00;99.90;;;;;;4951747;28;20950;-86
2022/05/04 04:06:32;;;;;;;872.50;801.60;;;6.00;99.90;;;;;;4948616;29;20980;-85
2022/05/04 04:08:59;;;;;;;879.70;810.10;;;5.90;99.90;;;;;;4944082;29;20531;-85
2022/05/04 04:11:26;;;;;;;852.37;785.10;;;5.90;99.90;;;;;;4939975;29;20520;-85
2022/05/04 04:13:55;;;;;;;858.57;784.90;;;5.90;99.90;;;;;;4940673;29;20838;-84
2022/05/04 04:16:21;;;;;;;873.30;802.10;;;5.90;99.90;;;;;;4939344;29;20459;-84
2022/05/04 04:18:48;;;;;;;855.00;784.10;;;6.10;99.90;;;;;;4956396;29;20480;-81
2022/05/04 04:24:00;;;;;;;826.40;761.47;;;6.20;99.90;;;;;;4937353;29;20899;-86
2022/05/04 04:26:26;;;;;;;840.97;773.13;;;6.20;99.90;;;;;;4946467;29;20504;-83
2022/05/04 04:28:58;;;;;;;832.77;766.10;;;6.30;99.90;;;;;;4949222;29;20455;-83
2022/05/04 04:31:25;;;;;;;851.30;784.70;;;6.30;99.90;;;;;;4955901;29;20561;-82
2022/05/04 04:33:52;;;;;;;873.37;805.80;;;6.40;99.90;;;;;;4958850;29;20451;-83
2022/05/04 04:36:18;;;;;;;849.27;784.27;;;6.50;99.90;;;;;;4959201;28;20453;-83
2022/05/04 04:38:45;;;;;;;862.57;796.63;;;6.70;99.90;;;;;;4960340;29;20491;-82
2022/05/04 04:41:12;;;;;;;855.13;790.43;;;6.70;99.90;;;;;;4955395;29;20483;-84
2022/05/04 04:43:39;;;;;;;856.17;792.57;;;6.70;99.90;;;;;;4946660;29;20459;-83
2022/05/04 04:46:07;;;;;;;865.63;802.33;;;6.80;99.90;;;;;;4950049;29;20457;-83
2022/05/04 04:48:36;;;;;;;856.50;792.93;;;6.80;99.90;;;;;;4955910;29;20451;-82
2022/05/04 04:51:03;;;;;;;859.43;798.23;;;6.90;99.90;;;;;;4957889;28;20505;-82
2022/05/04 04:53:31;;;;;;;862.83;802.70;;;7.10;99.90;;;;;;4969110;29;20456;-83
2022/05/04 04:55:58;;;;;;;857.73;799.87;;;7.10;99.90;;;;;;4968525;29;20448;-83
2022/05/04 04:58:25;;;;;;;844.53;788.13;;;7.10;99.90;;;;;;4934555;29;20455;-81
2022/05/04 05:00:52;;;;;;;838.77;784.17;;;7.10;99.90;;;;;;4956499;29;20482;-81
2022/05/04 05:03:20;;;;;;;834.93;781.40;;;7.20;99.90;;;;;;4918480;29;20458;-82
2022/05/04 05:05:47;;;;;;;853.03;799.40;;;7.30;99.90;;;;;;4920166;29;20544;-82
2022/05/04 05:08:14;;;;;;;844.37;792.90;;;7.40;99.90;;;;;;4954754;29;20448;-81
2022/05/04 05:10:41;;;;;;;829.90;779.23;;;7.50;99.90;;;;;;4961766;29;20476;-87
2022/05/04 05:13:08;;;;;;;792.57;747.70;;;7.60;99.90;;;;;;4949413;29;20457;-83
2022/05/04 05:18:23;;;;;;;716.40;679.80;;;7.60;99.90;;;;;;4952615;29;20452;-83
2022/05/04 05:20:50;;;;;;;648.73;618.63;;;7.60;99.90;;;;;;4955365;29;20482;-83
2022/05/04 05:23:17;;;;;;;572.90;548.77;;;7.60;99.90;;;;;;4949470;29;20452;-83
2022/05/04 05:25:43;;;;;;;475.97;457.27;;;7.60;99.90;;;;;;4945483;29;20456;-83
2022/05/04 05:28:10;;;;;;;360.50;347.20;;;7.80;99.90;;;;;;4951403;29;20463;-83
2022/05/04 05:30:37;;;;;;;339.20;326.60;;;7.90;99.90;;;;;;4958937;29;20544;-83
2022/05/04 05:33:04;;;;;;;219.93;211.47;;;7.90;99.90;;;;;;4946399;29;20453;-83
2022/05/04 05:35:32;;;;;;;194.50;186.07;;;7.90;99.90;;;;;;4967253;29;20466;-84
2022/05/04 05:37:59;;;;;;;139.17;132.77;;;8.00;99.90;;;;;;4961404;28;20452;-83
2022/05/04 05:40:26;;;;;;;120.57;115.07;;;8.10;99.90;;;;;;4949523;29;20490;-83
2022/05/04 05:42:53;;;;;;;44.23;41.10;;;8.20;99.90;;;;;;4952243;29;20453;-82
2022/05/04 05:45:20;;;;;;;39.13;36.00;;;8.30;99.90;;;;;;4953306;29;20460;-83
2022/05/04 05:47:47;;;;;;;38.67;35.17;;;8.40;99.90;;;;;;4970515;29;20457;-83
2022/05/04 05:50:13;;;;;;;24.97;20.07;;;8.40;99.90;;;;;;4955624;29;20477;-83
2022/05/04 05:52:42;;;;;;;22.30;19.00;;;8.30;99.90;;;;;;4956221;29;20520;-83
2022/05/04 05:55:09;;;;;;;27.50;18.30;;;8.30;99.90;;;;;;4950352;29;20516;-82
2022/05/04 05:57:36;;;;;;;29.87;15.33;;;8.40;99.90;;;;;;4961522;29;20482;-82
2022/05/04 06:00:04;;;;;;;19.57;12.83;;;8.70;99.90;;;;;;4958298;29;20847;-83
2022/05/04 06:02:33;;;;;;;25.90;14.80;;;8.80;99.90;;;;;;4965670;28;20444;-83
2022/05/04 06:05:00;;;;;;;24.47;13.43;;;8.80;99.90;;;;;;4955828;29;20479;-82
2022/05/04 06:07:27;;;;;;;19.43;10.60;;;8.80;99.90;;;;;;4956920;29;20464;-83
2022/05/04 06:09:55;;;;;;;22.33;13.87;;;8.80;99.90;;;;;;4952688;29;20904;-83
2022/05/04 06:12:22;;;;;;;30.60;11.60;;;9.00;99.90;;;;;;4958564;29;20580;-82
2022/05/04 06:14:49;;;;;;;27.70;14.90;;;9.20;99.90;;;;;;4961397;29;20662;-84
2022/05/04 06:17:15;;;;;;;24.37;13.93;;;9.50;99.90;;;;;;4955173;29;20467;-83
2022/05/04 06:19:42;;;;;;;28.90;12.53;;;9.60;99.90;;;;;;4952370;29;20479;-83
2022/05/04 06:22:09;;;;;;;20.50;11.80;;;9.80;99.90;;;;;;4960265;29;20451;-83
2022/05/04 06:24:36;;;;;;;22.07;10.73;;;9.90;99.90;;;;;;4949316;29;21040;-83
2022/05/04 06:27:04;;;;;;;21.47;12.60;;;10.00;99.90;;;;;;4968317;29;20467;-83
2022/05/04 06:35:04;;;;;;;30.20;14.27;;;10.40;95.90;;;;;;4953051;29;20468;-83
2022/05/04 06:37:31;;;;;;;20.87;12.00;;;10.60;93.60;;;;;;4963314;29;20453;-84
2022/05/04 06:39:57;;;;;;;20.33;11.73;;;10.70;91.20;;;;;;4959340;29;20489;-84
2022/05/04 06:42:26;;;;;;;32.07;12.50;;;10.80;90.70;;;;;;4958965;29;20869;-84
2022/05/04 06:44:52;;;;;;;23.33;12.20;;;10.90;87.30;;;;;;4951187;29;20539;-83
2022/05/04 06:47:19;;;;;;;28.80;12.33;;;11.10;88.00;;;;;;4951515;29;20464;-84
2022/05/04 06:49:46;;;;;;;28.00;13.70;;;11.10;85.70;;;;;;4953723;29;20477;-83
2022/05/04 06:52:13;;;;;;;25.00;11.87;;;11.00;82.00;;;;;;4951970;29;20452;-81
2022/05/04 06:54:39;;;;;;;24.53;10.77;;;11.20;83.50;;;;;;4967668;29;20460;-83
2022/05/04 06:57:06;;;;;;;19.40;11.93;;;11.00;82.60;;;;;;4965471;29;20475;-83
2022/05/04 06:59:35;;;;;;;23.10;12.50;;;11.20;81.80;;;;;;4947654;29;20457;-83
2022/05/04 07:02:02;;;;;;;27.13;13.27;;;11.40;79.20;;;;;;4947740;29;20212;-81
2022/05/04 07:04:29;;;;;;;24.07;12.40;;;11.50;78.30;;;;;;4948278;29;20460;-82
2022/05/04 07:06:55;;;;;;;21.20;13.60;;;11.60;81.30;;;;;;4948560;29;20465;-82
2022/05/04 07:09:22;;;;;;;19.97;13.00;;;11.70;78.60;;;;;;4955896;29;20219;-82
2022/05/04 07:11:49;;;;;;;28.70;13.70;;;12.00;77.90;;;;;;4960170;29;20467;-84
2022/05/04 07:14:18;;;;;;;23.60;12.73;;;12.10;74.10;;;;;;4961935;29;20519;-84
2022/05/04 07:16:47;;;;;;;29.27;12.70;;;11.90;72.40;;;;;;4966268;28;20459;-83
2022/05/04 07:19:17;;;;;;;23.90;12.90;;;11.60;72.90;;;;;;4962977;29;20469;-83
2022/05/04 07:21:45;;;;;;;21.33;12.10;;;11.70;73.70;;;;;;4960881;29;20461;-83
2022/05/04 07:24:12;;;;;;;21.43;11.80;;;11.50;75.80;;;;;;4967916;29;20452;-83
2022/05/04 07:26:38;;;;;;;25.97;12.20;;;11.50;76.00;;;;;;4968745;29;20471;-83
2022/05/04 07:29:05;;;;;;;23.47;12.77;;;11.50;74.70;;;;;;4952030;29;20540;-84
2022/05/04 07:31:32;;;;;;;24.17;12.43;;;11.60;75.00;;;;;;4964571;29;20495;-83
2022/05/04 07:34:01;;;;;;;23.63;11.37;;;11.70;73.70;;;;;;4952002;29;20469;-82
2022/05/04 07:36:28;;;;;;;26.83;12.23;;;11.80;71.60;;;;;;4963190;29;20529;-83
2022/05/04 07:38:58;;;;;;;24.33;12.17;;;11.70;77.70;;;;;;4955164;29;20452;-83
2022/05/04 07:44:09;;;;;;;27.43;14.10;;;11.80;72.90;;;;;;4948418;29;20452;-83
2022/05/04 07:46:36;;;;;;;26.50;13.20;;;11.90;74.00;;;;;;4946963;29;20460;-86
2022/05/04 07:49:05;;;;;;;24.00;10.30;;;12.00;70.50;;;;;;4947485;29;20499;-82
2022/05/04 07:51:32;;;;;;;26.03;13.77;;;12.00;68.80;;;;;;4950536;29;20485;-82
2022/05/04 07:53:58;;;;;;;25.90;13.90;;;12.20;71.00;;;;;;4969560;29;20460;-82
2022/05/04 07:56:25;;;;;;;40.13;13.73;;;12.10;68.50;;;;;;4950601;29;20457;-83
2022/05/04 07:58:52;;;;;;;14.20;9.33;;;12.40;67.20;;;;;;4959356;29;20463;-82
2022/05/04 08:04:21;;;;;;;22.90;12.27;;;12.60;65.50;;;;;;4930510;29;20478;-83
2022/05/04 08:06:48;;;;;;;26.70;16.33;;;12.80;63.50;;;;;;4935243;29;20557;-83
2022/05/04 08:09:14;;;;;;;23.20;12.27;;;13.00;63.70;;;;;;4957403;29;20457;-82
2022/05/04 08:11:41;;;;;;;22.17;11.27;;;13.00;63.70;;;;;;4957924;29;20482;-84
2022/05/04 08:14:08;;;;;;;22.83;13.70;;;12.90;61.50;;;;;;4965456;29;20484;-83
2022/05/04 08:16:35;;;;;;;27.43;14.43;;;13.30;62.60;;;;;;4950881;29;20461;-82
2022/05/04 08:19:03;;;;;;;22.00;12.00;;;13.40;59.50;;;;;;4961790;29;20456;-83
2022/05/04 08:21:30;;;;;;;22.23;13.17;;;13.70;58.20;;;;;;4960800;28;20448;-82
2022/05/04 08:23:57;;;;;;;21.80;12.20;;;13.70;54.10;;;;;;4942745;29;20454;-82
2022/05/04 08:26:24;;;;;;;24.33;13.00;;;13.90;55.30;;;;;;4939934;29;20455;-83
2022/05/04 08:28:51;;;;;;;27.43;15.73;;;14.30;55.90;;;;;;4953554;29;20457;-83
2022/05/04 08:31:17;;;;;;;21.30;14.73;;;13.90;53.50;;;;;;4957511;29;20806;-83
2022/05/04 08:33:44;;;;;;;21.00;13.70;;;14.20;51.90;;;;;;4948404;29;20458;-83
2022/05/04 08:36:12;;;;;;;21.43;13.40;;;14.00;52.00;;;;;;4946782;29;20457;-83
2022/05/04 08:38:39;;;;;;;34.83;17.40;;;14.20;50.80;;;;;;4944854;29;20463;-83
2022/05/04 08:41:07;;;;;;;19.67;15.10;;;14.20;52.70;;;;;;4938605;29;20475;-83
2022/05/04 08:43:34;;;;;;;29.53;16.50;;;14.10;50.30;;;;;;4938279;29;20466;-83
2022/05/04 08:46:03;;;;;;;17.07;10.40;;;14.60;50.50;;;;;;4943471;29;20954;-83
2022/05/04 08:48:32;;;;;;;27.63;17.63;;;14.40;48.00;;;;;;4944237;29;20483;-84
2022/05/04 08:51:01;;;;;;;23.20;12.80;;;14.80;48.40;;;;;;4951070;29;20931;-84
2022/05/04 08:53:29;;;;;;;32.23;17.20;;;15.20;48.70;;;;;;4942417;29;20452;-84
2022/05/04 08:55:57;;;;;;;18.27;12.27;;;15.20;44.90;;;;;;4959133;29;20459;-84
2022/05/04 08:58:24;;;;;;;26.23;15.43;;;15.30;40.20;;;;;;4956312;29;20467;-84
2022/05/04 09:00:51;;;;;;;24.90;14.40;;;15.60;44.30;;;;;;4954107;28;20492;-86
2022/05/04 09:03:21;;;;;;;30.40;16.13;;;15.40;40.10;;;;;;4959646;29;20485;-86
2022/05/04 09:05:49;;;;;;;32.43;17.07;;;15.40;42.80;;;;;;4952680;29;20550;-85
2022/05/04 09:08:16;;;;;;;21.37;10.53;;;15.80;36.80;;;;;;4938623;29;20461;-84
2022/05/04 09:10:45;;;;;;;26.57;14.23;;;16.10;36.60;;;;;;4946563;29;20477;-86
2022/05/04 09:13:13;;;;;;;24.13;14.97;;;15.70;36.90;;;;;;4944428;29;20455;-85
2022/05/04 09:15:41;;;;;;;21.23;15.67;;;16.20;35.10;;;;;;4948354;29;20465;-86
2022/05/04 09:18:09;;;;;;;22.93;14.80;;;16.60;36.30;;;;;;4944358;29;20464;-85
2022/05/04 09:20:55;;;;;;;25.30;15.20;;;17.20;37.80;;;;;;4944772;29;20474;-85
2022/05/04 09:23:24;;;;;;;29.27;16.00;;;17.00;32.50;;;;;;4945266;29;20497;-86
2022/05/04 09:25:54;;;;;;;26.17;15.03;;;17.10;32.60;;;;;;4962826;29;21042;-85
2022/05/04 09:28:24;;;;;;;24.00;14.33;;;17.20;28.80;;;;;;4954885;29;20462;-88
2022/05/04 09:30:51;;;;;;;21.67;14.20;;;17.10;27.30;;;;;;4950887;29;20529;-85
2022/05/04 09:33:20;;;;;;;23.33;17.52;;;17.50;30.10;;;;;;4944809;29;20479;-83
2022/05/04 09:35:47;;;;;;;21.63;13.97;;;17.40;28.50;;;;;;4946178;29;20206;-85
2022/05/04 09:46:38;;;;;;;23.60;15.70;;;17.30;25.10;;;;;;4956292;29;20441;-86
2022/05/04 09:49:13;;;;;;;21.70;13.27;;;17.10;27.00;;;;;;4942728;29;20483;-87
2022/05/04 09:51:43;;;;;;;16.60;9.30;;;16.90;25.80;;;;;;4958929;29;20866;-87
2022/05/04 09:54:15;;;;;;;33.17;12.23;;;17.00;29.00;;;;;;4955997;29;20469;-89
2022/05/04 09:56:49;;;;;;;21.80;12.73;;;17.00;27.10;;;;;;4937979;29;20857;-89
2022/05/04 09:59:16;;;;;;;23.20;14.73;;;16.80;26.60;;;;;;4942274;29;20459;-85
2022/05/04 10:01:44;;;;;;;25.27;13.80;;;16.60;27.30;;;;;;4956988;29;20454;-85
2022/05/04 10:04:12;;;;;;;23.03;14.20;;;16.50;27.80;;;;;;4948059;29;20452;-84
2022/05/04 10:06:39;;;;;;;26.73;14.93;;;16.40;28.20;;;;;;4964724;29;20551;-85
2022/05/04 10:09:06;;;;;;;22.13;14.37;;;16.90;28.80;;;;;;4945010;29;20463;-84
2022/05/04 10:11:34;;;;;;;26.83;13.30;;;16.80;26.30;;;;;;4955144;29;20482;-85
2022/05/04 10:14:04;;;;;;;20.60;12.03;;;17.10;27.90;;;;;;4958618;29;20464;-85
2022/05/04 10:16:35;;;;;;;25.63;14.97;;;17.60;25.00;;;;;;4957064;29;20454;-87
2022/05/04 10:19:06;;;;;;;22.57;14.40;;;18.60;24.80;;;;;;4949383;29;20446;-84
2022/05/04 10:21:34;;;;;;;23.10;15.20;;;18.50;23.50;;;;;;4954627;29;20455;-85
2022/05/04 10:24:06;;;;;;;27.00;15.23;;;19.00;19.00;;;;;;4963065;29;20454;-84
2022/05/04 10:26:34;;;;;;;26.93;17.30;;;19.10;20.20;;;;;;4963053;28;20468;-87
2022/05/04 10:32:34;;;;;;;23.00;13.30;;;18.80;21.00;;;;;;4959718;29;20546;-86
2022/05/04 10:35:20;;;;;;;23.57;17.00;;;19.20;18.90;;;;;;4947603;29;20462;-86
2022/05/04 10:38:07;;;;;;;25.03;15.80;;;19.40;19.30;;;;;;4936924;29;20455;-86
2022/05/04 10:40:36;;;;;;;24.93;16.00;;;20.10;14.90;;;;;;4951487;29;20463;-86
2022/05/04 10:43:05;;;;;;;28.53;18.30;;;19.50;17.50;;;;;;4958210;29;20458;-84
2022/05/04 10:45:34;;;;;;;23.87;15.67;;;19.30;19.10;;;;;;4938214;28;20454;-85
2022/05/04 10:48:23;;;;;;;30.33;16.87;;;18.40;18.50;;;;;;4939349;29;20469;-83
2022/05/04 10:50:52;;;;;;;26.70;18.60;;;18.70;18.80;;;;;;4942684;29;20902;-83
2022/05/04 10:53:21;;;;;;;27.80;18.13;;;19.70;14.10;;;;;;4944816;29;20467;-81
2022/05/04 10:55:56;;;;;;;25.07;16.93;;;20.30;14.10;;;;;;4943550;29;20528;-84
2022/05/04 10:58:31;;;;;;;22.00;15.50;;;20.00;12.70;;;;;;4943735;29;20451;-84
2022/05/04 11:01:12;;;;;;;27.60;18.33;;;19.90;12.10;;;;;;4941912;29;20476;-83
2022/05/04 11:03:49;;;;;;;29.63;19.40;;;19.40;12.40;;;;;;4941589;29;20467;-82
2022/05/04 11:06:23;;;;;;;25.67;19.33;;;19.40;14.30;;;;;;4957719;29;20517;-83
2022/05/04 11:08:51;;;;;;;26.87;19.73;;;19.90;13.70;;;;;;4959222;29;20465;-83
2022/05/04 11:11:20;;;;;;;26.80;17.57;;;20.00;12.20;;;;;;4943555;29;20483;-84
2022/05/04 11:13:47;;;;;;;27.93;19.57;;;20.30;10.80;;;;;;4944074;29;20516;-84
2022/05/04 11:16:16;;;;;;;24.40;17.97;;;20.70;10.10;;;;;;4961154;29;20454;-82
2022/05/04 11:18:42;;;;;;;26.93;18.57;;;20.90;10.40;;;;;;4961594;29;20525;-82
2022/05/04 11:21:11;;;;;;;29.27;17.53;;;20.20;10.10;;;;;;4959553;28;20474;-84
2022/05/04 11:23:38;;;;;;;22.50;16.40;;;20.30;11.70;;;;;;4959390;29;20550;-83
2022/05/04 11:26:06;;;;;;;21.50;16.13;;;20.50;11.80;;;;;;4960669;29;20463;-85
2022/05/04 11:28:34;;;;;;;25.43;15.23;;;21.00;7.20;;;;;;4959281;29;20459;-81
2022/05/04 11:31:01;;;;;;;23.27;14.10;;;22.10;6.10;;;;;;4961366;29;20857;-82
2022/05/04 11:33:29;;;;;;;31.57;15.30;;;21.70;5.40;;;;;;4962460;29;20466;-81
2022/05/04 11:35:56;;;;;;;19.70;13.63;;;21.60;5.70;;;;;;4961599;28;20467;-85
2022/05/04 11:38:24;;;;;;;20.00;14.80;;;21.00;5.30;;;;;;4959677;28;20464;-84
2022/05/04 11:40:52;;;;;;;31.07;17.00;;;22.00;2.90;;;;;;4961808;28;20476;-85
2022/05/04 11:43:33;;;;;;;19.83;12.63;;;23.30;1.00;;;;;;4960437;29;20491;-82
2022/05/04 11:46:04;;;;;;;19.17;13.37;;;23.00;1.00;;;;;;4960733;29;20547;-83
2022/05/04 11:48:32;;;;;;;23.30;14.23;;;21.80;1.90;;;;;;4959483;29;20455;-83
2022/05/04 11:50:58;;;;;;;23.70;14.50;;;21.70;1.00;;;;;;4960038;29;20490;-85
2022/05/04 11:53:25;;;;;;;25.27;14.90;;;22.10;2.20;;;;;;4960918;28;20455;-83
2022/05/04 11:55:52;;;;;;;20.47;13.03;;;22.20;1.00;;;;;;4960710;29;20442;-83
2022/05/04 11:58:19;;;;;;;22.47;15.20;;;21.50;1.00;;;;;;4959248;29;20456;-85
2022/05/04 12:00:46;;;;;;;21.73;14.77;;;23.20;1.00;;;;;;4959663;29;20502;-84
2022/05/04 12:03:13;;;;;;;21.07;13.90;;;23.50;1.00;;;;;;4961159;29;20459;-85
2022/05/04 12:05:41;;;;;;;22.50;14.53;;;25.10;1.00;;;;;;4961521;29;20464;-86
2022/05/04 12:08:09;;;;;;;20.53;12.83;;;23.60;1.00;;;;;;4960324;29;20523;-82
2022/05/04 12:10:36;;;;;;;24.77;11.80;;;23.40;1.00;;;;;;4961042;29;20484;-86
2022/05/04 12:13:04;;;;;;;18.17;12.60;;;22.70;1.00;;;;;;4962157;28;20468;-84
2022/05/04 12:15:31;;;;;;;25.27;14.37;;;23.30;1.00;;;;;;4961391;29;20463;-84
2022/05/04 12:17:59;;;;;;;33.80;13.93;;;22.70;1.00;;;;;;4960983;29;20459;-85
2022/05/04 12:20:27;;;;;;;21.20;13.17;;;23.50;1.00;;;;;;4960081;29;20535;-85
2022/05/04 12:22:55;;;;;;;21.13;11.93;;;23.40;1.00;;;;;;4960495;29;20433;-85
2022/05/04 12:25:24;;;;;;;21.63;11.93;;;23.40;1.00;;;;;;4961084;29;20555;-83
2022/05/04 12:27:51;;;;;;;29.97;12.93;;;23.60;1.00;;;;;;4947899;29;20453;-85
2022/05/04 12:33:10;;;;;;;16.57;12.10;;;23.90;1.00;;;;;;4962750;29;20483;-86
2022/05/04 12:35:39;;;;;;;16.20;10.00;;;23.50;1.00;;;;;;4946429;29;20969;-85
2022/05/04 12:38:08;;;;;;;17.37;10.43;;;24.80;1.00;;;;;;4943795;29;20459;-84
2022/05/04 12:40:36;;;;;;;13.20;9.23;;;24.80;1.00;;;;;;4947875;29;20476;-85
2022/05/04 12:43:05;;;;;;;14.20;9.30;;;24.10;1.00;;;;;;4939613;29;20453;-85
2022/05/04 12:45:34;;;;;;;19.47;8.60;;;23.70;1.00;;;;;;4936924;29;20493;-86
2022/05/04 12:48:01;;;;;;;15.30;8.93;;;23.20;1.00;;;;;;4936920;29;20453;-85
2022/05/04 12:50:31;;;;;;;16.07;7.50;;;22.90;1.00;;;;;;4935719;29;20859;-86
2022/05/04 12:53:01;;;;;;;17.10;8.40;;;22.70;1.00;;;;;;4938967;29;20504;-86
2022/05/04 12:58:14;;;;;;;14.40;7.70;;;23.60;1.00;;;;;;4940160;29;20407;-84
2022/05/04 13:00:41;;;;;;;15.00;7.80;;;23.90;1.00;;;;;;4938864;29;20515;-86
2022/05/04 13:03:11;;;;;;;13.83;7.97;;;23.50;1.00;;;;;;4938714;29;20950;-87
2022/05/04 13:05:39;;;;;;;10.73;6.80;;;23.50;1.00;;;;;;4939538;29;20553;-85
2022/05/04 13:08:08;;;;;;;11.80;7.87;;;23.60;1.00;;;;;;4937675;29;20452;-85